createdAt,value
2019-01-18T00:02:01.362Z,80.64
2019-01-18T00:04:51.071Z,81.05
2019-01-18T00:07:43.787Z,81.35
2019-01-18T00:10:32.795Z,81.57
2019-01-18T00:16:27.095Z,80.80
2019-01-18T00:22:23.025Z,81.63
2019-01-18T00:25:13.966Z,81.64
2019-01-18T00:28:20.142Z,81.78
2019-01-18T00:31:15.127Z,81.97
2019-01-18T00:34:02.979Z,82.01
2019-01-18T00:36:53.122Z,81.99
2019-01-18T00:39:40.535Z,81.90
2019-01-18T00:42:29.177Z,81.70
2019-01-18T00:45:16.527Z,81.64
2019-01-18T00:48:04.148Z,81.41
2019-01-18T00:50:51.540Z,81.26
2019-01-18T00:53:42.479Z,81.14
2019-01-18T00:56:27.829Z,81.23
2019-01-18T00:59:24.790Z,80.78
2019-01-18T01:02:12.453Z,80.64
2019-01-18T01:05:00.293Z,80.60
2019-01-18T01:07:48.004Z,80.58
2019-01-18T01:10:35.198Z,80.68
2019-01-18T01:13:23.081Z,80.90
2019-01-18T01:16:10.822Z,80.88
2019-01-18T01:18:58.097Z,80.75
2019-01-18T01:21:45.741Z,80.86
2019-01-18T01:24:32.945Z,81.16
2019-01-18T01:27:20.198Z,81.08
2019-01-18T01:30:11.804Z,80.45
2019-01-18T01:33:07.289Z,79.07
2019-01-18T01:35:54.608Z,78.13
2019-01-18T01:38:41.825Z,77.37
2019-01-18T01:41:28.955Z,75.86
2019-01-18T01:44:16.547Z,75.68
2019-01-18T01:47:03.668Z,76.11
2019-01-18T01:49:51.073Z,74.61
2019-01-18T01:52:38.859Z,75.47
2019-01-18T01:55:33.835Z,74.06
2019-01-18T01:58:23.610Z,75.29
2019-01-18T02:01:12.774Z,76.09
2019-01-18T02:04:00.529Z,76.05
2019-01-18T02:06:47.823Z,74.21
2019-01-18T02:09:35.096Z,75.34
2019-01-18T02:12:22.612Z,76.09
2019-01-18T02:15:10.325Z,76.74
2019-01-18T02:17:57.965Z,76.77
2019-01-18T02:20:45.370Z,77.14
2019-01-18T02:23:32.955Z,75.53
2019-01-18T02:26:21.816Z,76.53
2019-01-18T02:29:09.601Z,77.07
2019-01-18T02:31:57.645Z,77.55
2019-01-18T02:34:47.527Z,77.92
2019-01-18T02:37:36.177Z,78.49
2019-01-18T02:40:23.583Z,77.96
2019-01-18T02:43:13.864Z,80.81
2019-01-18T02:46:02.330Z,79.72
2019-01-18T02:48:51.495Z,82.28
2019-01-18T02:51:38.506Z,83.36
2019-01-18T02:54:25.903Z,84.30
2019-01-18T02:57:14.750Z,84.39
2019-01-18T03:00:05.327Z,84.51
2019-01-18T03:02:52.453Z,84.81
2019-01-18T03:05:40.207Z,85.02
2019-01-18T03:08:30.587Z,85.16
2019-01-18T03:11:19.890Z,85.34
2019-01-18T03:14:08.500Z,85.57
2019-01-18T03:20:03.129Z,85.75
2019-01-18T03:22:51.806Z,85.81
2019-01-18T03:25:40.197Z,85.86
2019-01-18T03:28:28.403Z,85.87
2019-01-18T03:31:16.217Z,85.87
2019-01-18T03:34:06.995Z,85.92
2019-01-18T03:36:55.865Z,85.98
2019-01-18T03:39:47.874Z,86.03
2019-01-18T03:42:37.355Z,86.28
2019-01-18T03:45:25.543Z,86.41
2019-01-18T03:48:16.264Z,86.57
2019-01-18T03:51:05.857Z,86.79
2019-01-18T03:53:54.624Z,87.03
2019-01-18T03:56:42.025Z,86.89
2019-01-18T03:59:31.892Z,87.14
2019-01-18T04:02:19.982Z,87.06
2019-01-18T04:05:09.914Z,86.93
2019-01-18T04:07:58.900Z,86.81
2019-01-18T04:10:47.370Z,86.88
2019-01-18T04:13:44.987Z,86.79
2019-01-18T04:16:32.637Z,86.78
2019-01-18T04:22:32.596Z,86.71
2019-01-18T04:25:26.804Z,86.59
2019-01-18T04:28:25.218Z,86.63
2019-01-18T04:31:12.567Z,86.60
2019-01-18T04:34:00.249Z,85.29
2019-01-18T04:36:56.036Z,85.82
2019-01-18T04:42:55.987Z,86.10
2019-01-18T04:45:43.706Z,86.22
2019-01-18T04:48:32.024Z,84.69
2019-01-18T04:51:19.553Z,83.62
2019-01-18T04:54:14.967Z,84.22
2019-01-18T04:57:03.117Z,84.39
2019-01-18T04:59:52.781Z,84.53
2019-01-18T05:02:46.023Z,83.22
2019-01-18T05:05:35.047Z,82.34
2019-01-18T05:08:29.483Z,83.42
2019-01-18T05:11:17.582Z,83.97
2019-01-18T05:14:05.304Z,84.39
2019-01-18T05:16:54.496Z,84.77
2019-01-18T05:19:41.843Z,85.22
2019-01-18T05:22:30.392Z,85.34
2019-01-18T05:25:18.529Z,85.42
2019-01-18T05:28:06.079Z,85.48
2019-01-18T05:30:55.728Z,85.43
2019-01-18T05:33:46.444Z,85.38
2019-01-18T05:36:34.247Z,85.33
2019-01-18T05:39:22.372Z,85.28
2019-01-18T05:42:10.032Z,85.07
2019-01-18T05:44:57.949Z,83.51
2019-01-18T05:47:45.908Z,83.64
2019-01-18T05:50:35.132Z,83.53
2019-01-18T05:53:23.047Z,83.22
2019-01-18T05:56:10.876Z,82.88
2019-01-18T05:58:58.566Z,82.59
2019-01-18T06:04:54.122Z,81.58
2019-01-18T06:07:42.215Z,81.37
2019-01-18T06:10:33.395Z,81.47
2019-01-18T06:13:21.018Z,81.56
2019-01-18T06:19:16.841Z,81.70
2019-01-18T06:22:04.902Z,81.72
2019-01-18T06:25:01.401Z,81.60
2019-01-18T06:27:51.964Z,81.29
2019-01-18T06:30:39.846Z,80.83
2019-01-18T06:33:27.268Z,80.73
2019-01-18T06:36:14.948Z,80.60
2019-01-18T06:39:02.188Z,80.47
2019-01-18T06:41:50.047Z,79.22
2019-01-18T06:44:37.960Z,79.67
2019-01-18T06:47:25.601Z,80.07
2019-01-18T06:50:13.412Z,80.39
2019-01-18T06:53:00.883Z,80.60
2019-01-18T06:55:48.229Z,79.21
2019-01-18T06:58:38.795Z,79.81
2019-01-18T07:01:33.369Z,80.06
2019-01-18T07:04:31.671Z,80.13
2019-01-18T07:07:22.169Z,80.26
2019-01-18T07:10:12.250Z,80.43
2019-01-18T07:13:00.086Z,80.54
2019-01-18T07:15:51.062Z,80.72
2019-01-18T07:18:38.533Z,79.52
2019-01-18T07:21:27.200Z,80.15
2019-01-18T07:24:16.740Z,80.60
2019-01-18T07:27:04.578Z,80.85
2019-01-18T07:29:53.413Z,81.07
2019-01-18T07:32:41.353Z,81.23
2019-01-18T07:35:28.773Z,81.20
2019-01-18T07:38:27.223Z,81.33
2019-01-18T07:47:32.560Z,79.17
2019-01-18T07:50:20.448Z,77.75
2019-01-18T08:08:43.382Z,76.83
2019-01-18T08:11:34.285Z,77.16
2019-01-18T08:14:24.358Z,77.23
2019-01-18T08:17:11.964Z,77.50
2019-01-18T08:19:59.915Z,77.42
2019-01-18T08:22:57.724Z,77.48
2019-01-18T08:25:45.074Z,77.56
2019-01-18T08:28:33.846Z,77.45
2019-01-18T08:31:28.710Z,77.46
2019-01-18T08:37:22.562Z,77.28
2019-01-18T08:40:13.394Z,77.30
2019-01-18T08:43:01.875Z,76.99
2019-01-18T08:45:51.076Z,77.38
2019-01-18T08:48:39.724Z,77.36
2019-01-18T08:51:29.082Z,77.28
2019-01-18T08:54:16.628Z,77.53
2019-01-18T08:57:04.162Z,77.50
2019-01-18T08:59:51.307Z,77.44
2019-01-18T09:02:39.029Z,77.41
2019-01-18T09:05:26.320Z,77.46
2019-01-18T09:08:14.147Z,75.58
2019-01-18T09:11:03.580Z,76.21
2019-01-18T09:13:51.619Z,76.61
2019-01-18T09:16:41.193Z,76.63
2019-01-18T09:19:29.942Z,76.79
2019-01-18T09:22:17.957Z,76.70
2019-01-18T09:25:05.113Z,76.84
2019-01-18T09:27:53.752Z,76.45
2019-01-18T09:30:41.323Z,76.73
2019-01-18T09:33:30.453Z,76.80
2019-01-18T09:36:18.345Z,76.59
2019-01-18T09:39:07.803Z,76.60
2019-01-18T09:41:57.898Z,76.21
2019-01-18T09:44:49.997Z,75.57
2019-01-18T09:47:37.447Z,72.92
2019-01-18T09:50:25.231Z,73.39
2019-01-18T09:53:14.194Z,73.63
2019-01-18T09:59:09.817Z,73.31
2019-01-18T10:01:57.320Z,73.19
2019-01-18T10:04:45.884Z,72.73
2019-01-18T10:10:40.694Z,71.93
2019-01-18T10:13:27.888Z,72.65
2019-01-18T10:16:15.443Z,72.53
2019-01-18T10:19:03.693Z,71.76
2019-01-18T10:21:51.072Z,72.20
2019-01-18T10:24:41.128Z,71.32
2019-01-18T10:27:32.143Z,72.14
2019-01-18T10:30:25.749Z,71.30
2019-01-18T10:33:16.010Z,70.75
2019-01-18T10:36:03.722Z,70.99
2019-01-18T10:38:52.452Z,71.10
2019-01-18T10:41:40.236Z,71.06
2019-01-18T10:44:28.100Z,71.15
2019-01-18T10:47:16.114Z,70.67
2019-01-18T10:50:04.068Z,70.52
2019-01-18T10:52:52.184Z,70.60
2019-01-18T10:55:42.976Z,69.99
2019-01-18T10:58:30.532Z,66.97
2019-01-18T11:01:19.670Z,67.74
2019-01-18T11:04:12.575Z,68.25
2019-01-18T11:10:10.518Z,68.84
2019-01-18T11:12:57.520Z,67.85
2019-01-18T11:15:44.855Z,68.87
2019-01-18T11:18:33.642Z,69.15
2019-01-18T11:21:21.423Z,65.51
2019-01-18T11:24:09.648Z,67.32
2019-01-18T11:30:14.469Z,67.49
2019-01-18T11:33:04.706Z,67.54
2019-01-18T11:35:52.707Z,63.36
2019-01-18T11:38:46.083Z,64.79
2019-01-18T11:41:33.435Z,65.94
2019-01-18T11:44:22.500Z,66.69
2019-01-18T11:47:10.457Z,66.37
2019-01-18T11:49:57.858Z,66.08
2019-01-18T11:52:45.815Z,62.09
2019-01-18T11:55:34.087Z,63.59
2019-01-18T11:58:25.507Z,63.70
2019-01-18T12:01:14.426Z,64.48
2019-01-18T12:04:02.156Z,64.21
2019-01-18T12:06:49.682Z,64.86
2019-01-18T12:09:39.514Z,64.66
2019-01-18T12:12:29.411Z,64.30
2019-01-18T12:15:16.712Z,64.51
2019-01-18T12:18:06.405Z,64.56
2019-01-18T12:24:08.370Z,64.58
2019-01-18T12:26:55.975Z,64.89
2019-01-18T12:29:53.841Z,64.80
2019-01-18T12:32:43.706Z,64.46
2019-01-18T12:35:37.420Z,64.54
2019-01-18T12:38:29.298Z,64.52
2019-01-18T12:41:20.847Z,60.17
2019-01-18T12:44:10.109Z,61.79
2019-01-18T12:46:59.014Z,62.59
2019-01-18T12:52:55.602Z,61.03
2019-01-18T12:55:48.762Z,61.77
2019-01-18T12:58:38.044Z,62.76
2019-01-18T13:01:39.153Z,62.11
2019-01-18T13:04:30.604Z,61.66
2019-01-18T13:07:21.254Z,61.72
2019-01-18T13:10:12.104Z,63.08
2019-01-18T13:13:00.813Z,63.06
2019-01-18T13:15:49.931Z,58.94
2019-01-18T13:18:37.343Z,56.25
2019-01-18T13:21:38.350Z,59.14
2019-01-18T13:24:31.045Z,61.07
2019-01-18T13:27:28.800Z,60.78
2019-01-18T13:33:26.894Z,59.90
2019-01-18T13:39:27.228Z,61.46
2019-01-18T13:42:16.430Z,61.63
2019-01-18T13:45:04.122Z,62.71
2019-01-18T13:48:03.641Z,59.54
2019-01-18T13:50:56.973Z,60.83
2019-01-18T13:53:49.287Z,61.01
2019-01-18T13:56:39.911Z,62.04
2019-01-18T13:59:29.921Z,62.38
2019-01-18T14:02:19.928Z,62.21
2019-01-18T14:08:20.303Z,62.93
2019-01-18T14:11:07.991Z,63.11
2019-01-18T14:14:02.320Z,63.02
2019-01-18T14:16:56.463Z,63.60
2019-01-18T14:19:47.298Z,61.14
2019-01-18T14:22:38.184Z,62.26
2019-01-18T14:25:27.413Z,62.68
2019-01-18T14:28:16.715Z,63.71
2019-01-18T14:31:09.475Z,64.36
2019-01-18T14:34:02.884Z,65.26
2019-01-18T14:37:03.257Z,64.47
2019-01-18T14:39:51.803Z,65.04
2019-01-18T14:42:39.302Z,65.65
2019-01-18T14:45:33.217Z,66.23
2019-01-18T14:54:57.970Z,67.51
2019-01-18T14:57:53.098Z,68.16
2019-01-18T15:00:40.767Z,68.33
2019-01-18T15:03:32.146Z,68.37
2019-01-18T15:06:32.022Z,68.25
2019-01-18T15:09:38.762Z,68.19
2019-01-18T15:12:28.897Z,68.58
2019-01-18T15:15:18.842Z,69.24
2019-01-18T15:18:06.179Z,69.79
2019-01-18T15:20:54.439Z,69.57
2019-01-18T15:23:46.533Z,69.50
2019-01-18T15:26:38.137Z,69.47
2019-01-18T15:32:35.928Z,70.66
2019-01-18T15:38:39.482Z,70.75
2019-01-18T15:41:28.582Z,71.31
2019-01-18T15:44:23.252Z,71.38
2019-01-18T15:47:12.882Z,71.35
2019-01-18T15:50:03.181Z,71.37
2019-01-18T15:53:08.143Z,71.66
2019-01-18T15:55:55.804Z,70.10
2019-01-18T15:58:44.036Z,71.30
2019-01-18T16:01:32.736Z,72.02
2019-01-18T16:04:27.935Z,72.29
2019-01-18T16:07:19.477Z,72.74
2019-01-18T16:13:21.602Z,73.35
2019-01-18T16:16:21.428Z,73.47
2019-01-18T16:19:11.776Z,73.83
2019-01-18T16:22:00.719Z,74.13
2019-01-18T16:24:49.346Z,74.05
2019-01-18T16:27:37.184Z,74.05
2019-01-18T16:30:26.492Z,73.99
2019-01-18T16:33:23.324Z,74.12
2019-01-18T16:36:07.630Z,74.21
2019-01-18T16:38:56.223Z,74.22
2019-01-18T16:41:43.605Z,74.47
2019-01-18T16:44:32.793Z,72.98
2019-01-18T16:47:20.489Z,74.20
2019-01-18T16:50:07.939Z,74.80
2019-01-18T16:52:59.387Z,74.98
2019-01-18T16:55:57.060Z,75.26
2019-01-18T16:58:44.771Z,75.37
2019-01-18T17:01:32.108Z,75.46
2019-01-18T17:04:19.717Z,75.54
2019-01-18T17:07:07.241Z,75.66
2019-01-18T17:09:54.419Z,75.69
2019-01-18T17:12:41.906Z,75.73
2019-01-18T17:15:29.569Z,75.55
2019-01-18T17:18:16.980Z,75.80
2019-01-18T17:21:04.350Z,76.13
2019-01-18T17:23:51.852Z,76.27
2019-01-18T17:26:39.395Z,76.41
2019-01-18T17:29:26.550Z,76.52
2019-01-18T17:32:13.932Z,75.21
2019-01-18T17:35:01.515Z,76.03
2019-01-18T17:40:57.550Z,76.97
2019-01-18T17:43:53.413Z,77.14
2019-01-18T17:46:52.508Z,77.44
2019-01-18T17:49:58.743Z,75.88
2019-01-18T17:53:07.940Z,76.76
2019-01-18T17:56:02.591Z,77.62
2019-01-18T17:59:20.835Z,78.10
2019-01-18T18:02:32.790Z,78.38
2019-01-18T18:05:32.571Z,76.87
2019-01-18T18:08:33.788Z,77.94
2019-01-18T18:17:55.776Z,77.90
2019-01-18T18:21:21.532Z,78.36
2019-01-18T18:24:11.373Z,78.64
2019-01-18T18:27:36.120Z,77.42
2019-01-18T18:30:33.094Z,76.38
2019-01-18T18:33:23.548Z,77.42
2019-01-18T18:36:29.873Z,78.13
2019-01-18T18:39:26.366Z,76.51
2019-01-18T18:45:48.135Z,78.00
2019-01-18T18:48:35.378Z,76.72
2019-01-18T18:51:22.943Z,77.63
2019-01-18T18:54:25.433Z,78.23
2019-01-18T18:57:21.924Z,78.50
2019-01-18T19:00:18.855Z,78.82
2019-01-18T19:06:29.063Z,78.73
2019-01-18T19:19:31.889Z,78.02
2019-01-18T19:32:22.180Z,78.46
2019-01-18T19:38:49.548Z,79.47
2019-01-18T20:21:42.669Z,80.62
2019-01-18T20:24:48.594Z,79.20
2019-01-18T20:44:23.026Z,80.32
2019-01-18T20:50:31.665Z,80.16
2019-01-18T20:53:43.597Z,79.84
2019-01-18T21:00:02.609Z,79.94
2019-01-18T21:32:38.566Z,79.92
2019-01-18T21:35:28.467Z,78.30
2019-01-18T21:38:33.668Z,78.89
2019-01-18T21:41:28.543Z,77.19
2019-01-18T21:44:29.668Z,77.88
2019-01-18T21:47:37.254Z,78.24
2019-01-18T22:03:57.409Z,78.37
2019-01-18T22:16:34.630Z,79.62
2019-01-18T22:19:40.466Z,79.89
2019-01-18T22:22:35.454Z,79.98
2019-01-18T22:25:31.387Z,78.25
2019-01-18T22:28:25.017Z,78.96
2019-01-18T22:31:43.775Z,79.32
2019-01-18T22:35:01.658Z,79.58
2019-01-18T22:37:48.702Z,79.66
2019-01-18T22:40:39.001Z,79.74
2019-01-18T22:47:19.081Z,77.78
2019-01-18T22:50:18.841Z,78.64
2019-01-18T22:56:26.638Z,79.28
2019-01-18T22:59:16.704Z,77.73
2019-01-18T23:02:20.148Z,78.49
2019-01-18T23:12:25.884Z,79.74
2019-01-18T23:15:21.588Z,78.28
2019-01-18T23:21:57.632Z,79.51
2019-01-18T23:24:58.431Z,79.75
2019-01-18T23:27:55.001Z,77.88
2019-01-18T23:30:43.455Z,78.70
2019-01-18T23:33:49.396Z,79.37
2019-01-18T23:36:38.185Z,79.75
2019-01-18T23:39:28.394Z,80.14
2019-01-18T23:42:22.182Z,80.13
2019-01-18T23:48:29.481Z,78.14
2019-01-18T23:51:19.799Z,78.77
2019-01-18T23:54:13.874Z,79.23
2019-01-18T23:57:20.782Z,79.54
